Terminal Aerodrome Forecast
Issued by NWS

Home | Current Version | Previous Version | Text Only | Print | Product List | Glossary On
Versions: 1 2 3 4 5 6 7 8 9 10 11 12 13 14 15 16 17 18 19 20 21 22 23 24 25 26 27 28 29 30 31 32 33
000
FTAK31 PANC 310520
TAFAAQ
TAF
PAAQ 310520Z 3106/0106 VRB04KT P6SM VCSH BKN060
     FM311000 34004KT P6SM SCT060 BKN100
     FM311800 VRB05KT P6SM FEW100 SCT200
     FM010400 20007KT P6SM VCSH SCT060 BKN100=

USA.gov is the U.S. government's official web portal to all federal, state and local government web resources and services.